sensor_id;sensor_type;location;lat;lon;timestamp;temperature;humidity
4759;DHT22;2393;50.560;12.636;2022-12-07T00:01:23;1.70;99.90
4759;DHT22;2393;50.560;12.636;2022-12-07T00:03:53;1.70;99.90
4759;DHT22;2393;50.560;12.636;2022-12-07T00:06:25;1.70;99.90
4759;DHT22;2393;50.560;12.636;2022-12-07T00:08:53;1.70;99.90
4759;DHT22;2393;50.560;12.636;2022-12-07T00:11:23;1.70;99.90
4759;DHT22;2393;50.560;12.636;2022-12-07T00:13:52;1.70;99.90
4759;DHT22;2393;50.560;12.636;2022-12-07T00:16:22;1.70;99.90
4759;DHT22;2393;50.560;12.636;2022-12-07T00:18:51;1.70;99.90
4759;DHT22;2393;50.560;12.636;2022-12-07T00:21:20;1.70;99.90
4759;DHT22;2393;50.560;12.636;2022-12-07T00:23:51;1.70;99.90
4759;DHT22;2393;50.560;12.636;2022-12-07T00:26:21;1.70;99.90
4759;DHT22;2393;50.560;12.636;2022-12-07T00:28:51;1.60;99.90
4759;DHT22;2393;50.560;12.636;2022-12-07T00:31:21;1.60;99.90
4759;DHT22;2393;50.560;12.636;2022-12-07T00:33:50;1.60;99.90
4759;DHT22;2393;50.560;12.636;2022-12-07T00:36:20;1.60;99.90
4759;DHT22;2393;50.560;12.636;2022-12-07T00:38:54;1.60;99.90
4759;DHT22;2393;50.560;12.636;2022-12-07T00:41:23;1.50;99.90
4759;DHT22;2393;50.560;12.636;2022-12-07T00:43:53;1.60;99.90
4759;DHT22;2393;50.560;12.636;2022-12-07T00:46:22;1.50;99.90
4759;DHT22;2393;50.560;12.636;2022-12-07T00:48:52;1.60;99.90
4759;DHT22;2393;50.560;12.636;2022-12-07T00:51:22;1.60;99.90
4759;DHT22;2393;50.560;12.636;2022-12-07T00:53:51;1.50;99.90
4759;DHT22;2393;50.560;12.636;2022-12-07T00:56:22;1.50;99.90
4759;DHT22;2393;50.560;12.636;2022-12-07T00:58:52;1.50;99.90
4759;DHT22;2393;50.560;12.636;2022-12-07T01:01:20;1.50;99.90
4759;DHT22;2393;50.560;12.636;2022-12-07T01:03:48;1.50;99.90
4759;DHT22;2393;50.560;12.636;2022-12-07T01:06:18;1.50;99.90
4759;DHT22;2393;50.560;12.636;2022-12-07T01:08:47;1.50;99.90
4759;DHT22;2393;50.560;12.636;2022-12-07T01:11:17;1.50;99.90
4759;DHT22;2393;50.560;12.636;2022-12-07T01:13:49;1.50;99.90
4759;DHT22;2393;50.560;12.636;2022-12-07T01:16:18;1.50;99.90
4759;DHT22;2393;50.560;12.636;2022-12-07T01:18:49;1.50;99.90
4759;DHT22;2393;50.560;12.636;2022-12-07T01:21:19;1.40;99.90
4759;DHT22;2393;50.560;12.636;2022-12-07T01:23:48;1.40;99.90
4759;DHT22;2393;50.560;12.636;2022-12-07T01:26:18;1.40;99.90
4759;DHT22;2393;50.560;12.636;2022-12-07T01:28:48;1.40;99.90
4759;DHT22;2393;50.560;12.636;2022-12-07T01:31:18;1.30;99.90
4759;DHT22;2393;50.560;12.636;2022-12-07T01:33:52;1.30;99.90
4759;DHT22;2393;50.560;12.636;2022-12-07T01:36:23;1.30;99.90
4759;DHT22;2393;50.560;12.636;2022-12-07T01:38:55;1.30;99.90
4759;DHT22;2393;50.560;12.636;2022-12-07T01:41:26;1.20;99.90
4759;DHT22;2393;50.560;12.636;2022-12-07T01:44:23;1.20;99.90
4759;DHT22;2393;50.560;12.636;2022-12-07T01:46:52;1.10;99.90
4759;DHT22;2393;50.560;12.636;2022-12-07T01:49:26;1.00;99.90
4759;DHT22;2393;50.560;12.636;2022-12-07T01:52:01;1.00;99.90
4759;DHT22;2393;50.560;12.636;2022-12-07T01:54:33;0.90;99.90
4759;DHT22;2393;50.560;12.636;2022-12-07T01:57:03;0.90;99.90
4759;DHT22;2393;50.560;12.636;2022-12-07T01:59:35;0.90;99.90
4759;DHT22;2393;50.560;12.636;2022-12-07T02:02:10;0.80;99.90
4759;DHT22;2393;50.560;12.636;2022-12-07T02:04:41;0.80;99.90
4759;DHT22;2393;50.560;12.636;2022-12-07T02:07:09;0.80;99.90
4759;DHT22;2393;50.560;12.636;2022-12-07T02:09:37;0.80;99.90
4759;DHT22;2393;50.560;12.636;2022-12-07T02:12:05;0.80;99.90
4759;DHT22;2393;50.560;12.636;2022-12-07T02:14:35;0.80;99.90
4759;DHT22;2393;50.560;12.636;2022-12-07T02:17:10;0.80;99.90
4759;DHT22;2393;50.560;12.636;2022-12-07T02:20:11;0.80;99.90
4759;DHT22;2393;50.560;12.636;2022-12-07T02:23:04;0.80;99.90
4759;DHT22;2393;50.560;12.636;2022-12-07T02:25:50;0.80;99.90
4759;DHT22;2393;50.560;12.636;2022-12-07T02:28:28;0.80;99.90
4759;DHT22;2393;50.560;12.636;2022-12-07T02:31:02;0.70;99.90
4759;DHT22;2393;50.560;12.636;2022-12-07T02:33:36;0.70;99.90
4759;DHT22;2393;50.560;12.636;2022-12-07T02:36:06;0.70;99.90
4759;DHT22;2393;50.560;12.636;2022-12-07T02:38:40;0.60;99.90
4759;DHT22;2393;50.560;12.636;2022-12-07T02:41:12;0.70;99.90
4759;DHT22;2393;50.560;12.636;2022-12-07T02:43:44;0.70;99.90
4759;DHT22;2393;50.560;12.636;2022-12-07T02:46:18;0.60;99.90
4759;DHT22;2393;50.560;12.636;2022-12-07T02:48:49;0.60;99.90
4759;DHT22;2393;50.560;12.636;2022-12-07T02:51:17;0.50;99.90
4759;DHT22;2393;50.560;12.636;2022-12-07T02:53:45;0.60;99.90
4759;DHT22;2393;50.560;12.636;2022-12-07T02:56:27;0.60;99.90
4759;DHT22;2393;50.560;12.636;2022-12-07T02:59:08;0.60;99.90
4759;DHT22;2393;50.560;12.636;2022-12-07T03:01:47;0.60;99.90
4759;DHT22;2393;50.560;12.636;2022-12-07T03:04:27;0.60;99.90
4759;DHT22;2393;50.560;12.636;2022-12-07T03:07:08;0.50;99.90
4759;DHT22;2393;50.560;12.636;2022-12-07T03:09:43;0.50;99.90
4759;DHT22;2393;50.560;12.636;2022-12-07T03:12:17;0.50;99.90
4759;DHT22;2393;50.560;12.636;2022-12-07T03:14:51;0.50;99.90
4759;DHT22;2393;50.560;12.636;2022-12-07T03:17:27;0.50;99.90
4759;DHT22;2393;50.560;12.636;2022-12-07T03:19:58;0.40;99.90
4759;DHT22;2393;50.560;12.636;2022-12-07T03:22:30;0.50;99.90
4759;DHT22;2393;50.560;12.636;2022-12-07T03:25:03;0.40;99.90
4759;DHT22;2393;50.560;12.636;2022-12-07T03:27:37;0.50;99.90
4759;DHT22;2393;50.560;12.636;2022-12-07T03:30:09;0.50;99.90
4759;DHT22;2393;50.560;12.636;2022-12-07T03:32:41;0.40;99.90
4759;DHT22;2393;50.560;12.636;2022-12-07T03:35:14;0.50;99.90
4759;DHT22;2393;50.560;12.636;2022-12-07T03:37:49;0.50;99.90
4759;DHT22;2393;50.560;12.636;2022-12-07T03:40:23;0.50;99.90
4759;DHT22;2393;50.560;12.636;2022-12-07T03:42:54;0.60;99.90
4759;DHT22;2393;50.560;12.636;2022-12-07T03:45:26;0.60;99.90
4759;DHT22;2393;50.560;12.636;2022-12-07T03:48:02;0.60;99.90
4759;DHT22;2393;50.560;12.636;2022-12-07T03:50:38;0.60;99.90
4759;DHT22;2393;50.560;12.636;2022-12-07T03:53:14;0.60;99.90
4759;DHT22;2393;50.560;12.636;2022-12-07T03:55:44;0.70;99.90
4759;DHT22;2393;50.560;12.636;2022-12-07T03:58:17;0.70;99.90
4759;DHT22;2393;50.560;12.636;2022-12-07T04:00:47;0.70;99.90
4759;DHT22;2393;50.560;12.636;2022-12-07T04:03:17;0.70;99.90
4759;DHT22;2393;50.560;12.636;2022-12-07T04:05:46;0.70;99.90
4759;DHT22;2393;50.560;12.636;2022-12-07T04:08:14;0.70;99.90
4759;DHT22;2393;50.560;12.636;2022-12-07T04:10:42;0.70;99.90
4759;DHT22;2393;50.560;12.636;2022-12-07T04:13:10;0.70;99.90
4759;DHT22;2393;50.560;12.636;2022-12-07T04:15:38;0.70;99.90
4759;DHT22;2393;50.560;12.636;2022-12-07T04:18:06;0.70;99.90
4759;DHT22;2393;50.560;12.636;2022-12-07T04:20:36;0.80;99.90
4759;DHT22;2393;50.560;12.636;2022-12-07T04:23:04;0.80;99.90
4759;DHT22;2393;50.560;12.636;2022-12-07T04:25:32;0.90;99.90
4759;DHT22;2393;50.560;12.636;2022-12-07T04:28:00;0.90;99.90
4759;DHT22;2393;50.560;12.636;2022-12-07T04:30:28;0.90;99.90
4759;DHT22;2393;50.560;12.636;2022-12-07T04:32:56;0.90;99.90
4759;DHT22;2393;50.560;12.636;2022-12-07T04:35:24;1.00;99.90
4759;DHT22;2393;50.560;12.636;2022-12-07T04:37:54;1.00;99.90
4759;DHT22;2393;50.560;12.636;2022-12-07T04:40:22;1.00;99.90
4759;DHT22;2393;50.560;12.636;2022-12-07T04:42:50;1.00;99.90
4759;DHT22;2393;50.560;12.636;2022-12-07T04:45:18;1.00;99.90
4759;DHT22;2393;50.560;12.636;2022-12-07T04:47:46;1.00;99.90
4759;DHT22;2393;50.560;12.636;2022-12-07T04:50:14;1.00;99.90
4759;DHT22;2393;50.560;12.636;2022-12-07T04:52:42;0.90;99.90
4759;DHT22;2393;50.560;12.636;2022-12-07T04:55:11;1.00;99.90
4759;DHT22;2393;50.560;12.636;2022-12-07T04:57:39;1.00;99.90
4759;DHT22;2393;50.560;12.636;2022-12-07T05:00:08;1.00;99.90
4759;DHT22;2393;50.560;12.636;2022-12-07T05:02:37;1.00;99.90
4759;DHT22;2393;50.560;12.636;2022-12-07T05:05:05;1.10;99.90
4759;DHT22;2393;50.560;12.636;2022-12-07T05:07:33;1.10;99.90
4759;DHT22;2393;50.560;12.636;2022-12-07T05:10:02;1.10;99.90
4759;DHT22;2393;50.560;12.636;2022-12-07T05:12:32;1.10;99.90
4759;DHT22;2393;50.560;12.636;2022-12-07T05:15:00;1.00;99.90
4759;DHT22;2393;50.560;12.636;2022-12-07T05:17:28;1.10;99.90
4759;DHT22;2393;50.560;12.636;2022-12-07T05:19:56;1.10;99.90
4759;DHT22;2393;50.560;12.636;2022-12-07T05:22:24;1.10;99.90
4759;DHT22;2393;50.560;12.636;2022-12-07T05:24:54;1.20;99.90
4759;DHT22;2393;50.560;12.636;2022-12-07T05:27:23;1.20;99.90
4759;DHT22;2393;50.560;12.636;2022-12-07T05:29:52;1.20;99.90
4759;DHT22;2393;50.560;12.636;2022-12-07T05:32:20;1.20;99.90
4759;DHT22;2393;50.560;12.636;2022-12-07T05:34:49;1.20;99.90
4759;DHT22;2393;50.560;12.636;2022-12-07T05:37:16;1.20;99.90
4759;DHT22;2393;50.560;12.636;2022-12-07T05:39:45;1.30;99.90
4759;DHT22;2393;50.560;12.636;2022-12-07T05:42:13;1.20;99.90
4759;DHT22;2393;50.560;12.636;2022-12-07T05:44:42;1.20;99.90
4759;DHT22;2393;50.560;12.636;2022-12-07T05:47:12;1.20;99.90
4759;DHT22;2393;50.560;12.636;2022-12-07T05:49:42;1.20;99.90
4759;DHT22;2393;50.560;12.636;2022-12-07T05:52:10;1.20;99.90
4759;DHT22;2393;50.560;12.636;2022-12-07T05:54:38;1.20;99.90
4759;DHT22;2393;50.560;12.636;2022-12-07T05:57:06;1.20;99.90
4759;DHT22;2393;50.560;12.636;2022-12-07T05:59:34;1.20;99.90
4759;DHT22;2393;50.560;12.636;2022-12-07T06:02:03;1.20;99.90
4759;DHT22;2393;50.560;12.636;2022-12-07T06:04:35;1.20;99.90
4759;DHT22;2393;50.560;12.636;2022-12-07T06:07:04;1.20;99.90
4759;DHT22;2393;50.560;12.636;2022-12-07T06:09:33;1.20;99.90
4759;DHT22;2393;50.560;12.636;2022-12-07T06:12:02;1.20;99.90
4759;DHT22;2393;50.560;12.636;2022-12-07T06:14:48;1.20;99.90
4759;DHT22;2393;50.560;12.636;2022-12-07T06:17:16;1.30;99.90
4759;DHT22;2393;50.560;12.636;2022-12-07T06:19:46;1.20;99.90
4759;DHT22;2393;50.560;12.636;2022-12-07T06:22:14;1.20;99.90
4759;DHT22;2393;50.560;12.636;2022-12-07T06:24:43;1.20;99.90
4759;DHT22;2393;50.560;12.636;2022-12-07T06:27:11;1.20;99.90
4759;DHT22;2393;50.560;12.636;2022-12-07T06:29:39;1.30;99.90
4759;DHT22;2393;50.560;12.636;2022-12-07T06:32:07;1.20;99.90
4759;DHT22;2393;50.560;12.636;2022-12-07T06:34:35;1.20;99.90
4759;DHT22;2393;50.560;12.636;2022-12-07T06:37:05;1.20;99.90
4759;DHT22;2393;50.560;12.636;2022-12-07T06:39:33;1.30;99.90
4759;DHT22;2393;50.560;12.636;2022-12-07T06:42:01;1.30;99.90
4759;DHT22;2393;50.560;12.636;2022-12-07T06:44:29;1.30;99.90
4759;DHT22;2393;50.560;12.636;2022-12-07T06:46:57;1.20;99.90
4759;DHT22;2393;50.560;12.636;2022-12-07T06:49:45;1.30;99.90
4759;DHT22;2393;50.560;12.636;2022-12-07T06:52:14;1.30;99.90
4759;DHT22;2393;50.560;12.636;2022-12-07T06:54:42;1.40;99.90
4759;DHT22;2393;50.560;12.636;2022-12-07T06:57:11;1.40;99.90
4759;DHT22;2393;50.560;12.636;2022-12-07T06:59:39;1.40;99.90
4759;DHT22;2393;50.560;12.636;2022-12-07T07:02:08;1.40;99.90
4759;DHT22;2393;50.560;12.636;2022-12-07T07:04:36;1.50;99.90
4759;DHT22;2393;50.560;12.636;2022-12-07T07:07:04;1.50;99.90
4759;DHT22;2393;50.560;12.636;2022-12-07T07:09:34;1.50;99.90
4759;DHT22;2393;50.560;12.636;2022-12-07T07:12:02;1.50;99.90
4759;DHT22;2393;50.560;12.636;2022-12-07T07:14:30;1.50;99.90
4759;DHT22;2393;50.560;12.636;2022-12-07T07:16:59;1.50;99.90
4759;DHT22;2393;50.560;12.636;2022-12-07T07:19:27;1.50;99.90
4759;DHT22;2393;50.560;12.636;2022-12-07T07:21:55;1.50;99.90
4759;DHT22;2393;50.560;12.636;2022-12-07T07:24:23;1.50;99.90
4759;DHT22;2393;50.560;12.636;2022-12-07T07:26:53;1.50;99.90
4759;DHT22;2393;50.560;12.636;2022-12-07T07:29:21;1.50;99.90
4759;DHT22;2393;50.560;12.636;2022-12-07T07:31:49;1.50;99.90
4759;DHT22;2393;50.560;12.636;2022-12-07T07:34:17;1.50;99.90
4759;DHT22;2393;50.560;12.636;2022-12-07T07:36:45;1.50;99.90
4759;DHT22;2393;50.560;12.636;2022-12-07T07:39:13;1.50;99.90
4759;DHT22;2393;50.560;12.636;2022-12-07T07:41:42;1.50;99.90
4759;DHT22;2393;50.560;12.636;2022-12-07T07:44:14;1.60;99.90
4759;DHT22;2393;50.560;12.636;2022-12-07T07:46:42;1.60;99.90
4759;DHT22;2393;50.560;12.636;2022-12-07T07:49:10;1.60;99.90
4759;DHT22;2393;50.560;12.636;2022-12-07T07:51:38;1.60;99.90
4759;DHT22;2393;50.560;12.636;2022-12-07T07:54:07;1.60;99.90
4759;DHT22;2393;50.560;12.636;2022-12-07T07:56:35;1.70;99.90
4759;DHT22;2393;50.560;12.636;2022-12-07T07:59:03;1.70;99.90
4759;DHT22;2393;50.560;12.636;2022-12-07T08:01:32;1.60;99.90
4759;DHT22;2393;50.560;12.636;2022-12-07T08:04:00;1.70;99.90
4759;DHT22;2393;50.560;12.636;2022-12-07T08:06:28;1.70;99.90
4759;DHT22;2393;50.560;12.636;2022-12-07T08:08:58;1.70;99.90
4759;DHT22;2393;50.560;12.636;2022-12-07T08:11:26;1.80;99.90
4759;DHT22;2393;50.560;12.636;2022-12-07T08:13:54;1.80;99.90
4759;DHT22;2393;50.560;12.636;2022-12-07T08:16:23;1.80;99.90
4759;DHT22;2393;50.560;12.636;2022-12-07T08:18:52;1.80;99.90
4759;DHT22;2393;50.560;12.636;2022-12-07T08:21:20;1.80;99.90
4759;DHT22;2393;50.560;12.636;2022-12-07T08:23:48;1.70;99.90
4759;DHT22;2393;50.560;12.636;2022-12-07T08:26:17;1.80;99.90
4759;DHT22;2393;50.560;12.636;2022-12-07T08:28:45;1.80;99.90
4759;DHT22;2393;50.560;12.636;2022-12-07T08:31:15;1.80;99.90
4759;DHT22;2393;50.560;12.636;2022-12-07T08:33:45;1.80;99.90
4759;DHT22;2393;50.560;12.636;2022-12-07T08:36:16;1.80;99.90
4759;DHT22;2393;50.560;12.636;2022-12-07T08:38:45;1.80;99.90
4759;DHT22;2393;50.560;12.636;2022-12-07T08:41:33;1.80;99.90
4759;DHT22;2393;50.560;12.636;2022-12-07T08:44:01;1.80;99.90
4759;DHT22;2393;50.560;12.636;2022-12-07T08:46:32;1.80;99.90
4759;DHT22;2393;50.560;12.636;2022-12-07T08:49:06;1.80;99.90
4759;DHT22;2393;50.560;12.636;2022-12-07T08:51:38;1.80;99.90
4759;DHT22;2393;50.560;12.636;2022-12-07T08:54:09;1.80;99.90
4759;DHT22;2393;50.560;12.636;2022-12-07T08:56:37;1.90;99.90
4759;DHT22;2393;50.560;12.636;2022-12-07T08:59:06;1.90;99.90
4759;DHT22;2393;50.560;12.636;2022-12-07T09:01:34;2.00;99.90
4759;DHT22;2393;50.560;12.636;2022-12-07T09:04:02;2.10;99.90
4759;DHT22;2393;50.560;12.636;2022-12-07T09:06:31;2.10;99.90
4759;DHT22;2393;50.560;12.636;2022-12-07T09:09:01;2.10;99.90
4759;DHT22;2393;50.560;12.636;2022-12-07T09:11:30;2.20;99.90
4759;DHT22;2393;50.560;12.636;2022-12-07T09:13:58;2.20;99.90
4759;DHT22;2393;50.560;12.636;2022-12-07T09:16:26;2.20;99.90
4759;DHT22;2393;50.560;12.636;2022-12-07T09:18:55;2.20;99.90
4759;DHT22;2393;50.560;12.636;2022-12-07T09:21:23;2.20;99.90
4759;DHT22;2393;50.560;12.636;2022-12-07T09:23:51;2.20;99.90
4759;DHT22;2393;50.560;12.636;2022-12-07T09:26:20;2.20;99.90
4759;DHT22;2393;50.560;12.636;2022-12-07T09:28:48;2.20;99.90
4759;DHT22;2393;50.560;12.636;2022-12-07T09:31:16;2.30;99.90
4759;DHT22;2393;50.560;12.636;2022-12-07T09:33:53;2.30;99.90
4759;DHT22;2393;50.560;12.636;2022-12-07T09:36:22;2.40;99.90
4759;DHT22;2393;50.560;12.636;2022-12-07T09:38:50;2.50;99.90
4759;DHT22;2393;50.560;12.636;2022-12-07T09:41:20;2.70;99.90
4759;DHT22;2393;50.560;12.636;2022-12-07T09:43:49;2.90;99.90
4759;DHT22;2393;50.560;12.636;2022-12-07T09:46:19;3.10;99.90
4759;DHT22;2393;50.560;12.636;2022-12-07T09:48:49;3.30;99.90
4759;DHT22;2393;50.560;12.636;2022-12-07T09:51:20;3.50;99.90
4759;DHT22;2393;50.560;12.636;2022-12-07T09:53:52;3.50;99.90
4759;DHT22;2393;50.560;12.636;2022-12-07T09:56:22;3.60;99.90
4759;DHT22;2393;50.560;12.636;2022-12-07T09:58:59;3.50;99.90
4759;DHT22;2393;50.560;12.636;2022-12-07T10:01:30;3.50;99.90
4759;DHT22;2393;50.560;12.636;2022-12-07T10:04:06;3.40;99.90
4759;DHT22;2393;50.560;12.636;2022-12-07T10:06:37;3.50;99.90
4759;DHT22;2393;50.560;12.636;2022-12-07T10:09:09;3.50;99.90
4759;DHT22;2393;50.560;12.636;2022-12-07T10:12:01;3.60;99.90
4759;DHT22;2393;50.560;12.636;2022-12-07T10:14:33;3.60;99.90
4759;DHT22;2393;50.560;12.636;2022-12-07T10:17:37;3.60;99.90
4759;DHT22;2393;50.560;12.636;2022-12-07T10:20:14;3.70;99.90
4759;DHT22;2393;50.560;12.636;2022-12-07T10:22:58;3.60;99.90
4759;DHT22;2393;50.560;12.636;2022-12-07T10:25:29;3.60;99.90
4759;DHT22;2393;50.560;12.636;2022-12-07T10:28:12;3.50;99.90
4759;DHT22;2393;50.560;12.636;2022-12-07T10:30:53;3.40;99.90
4759;DHT22;2393;50.560;12.636;2022-12-07T10:33:35;3.30;99.90
4759;DHT22;2393;50.560;12.636;2022-12-07T10:36:18;3.30;99.90
4759;DHT22;2393;50.560;12.636;2022-12-07T10:38:48;3.30;99.90
4759;DHT22;2393;50.560;12.636;2022-12-07T10:41:17;3.40;99.90
4759;DHT22;2393;50.560;12.636;2022-12-07T10:43:50;3.60;99.90
4759;DHT22;2393;50.560;12.636;2022-12-07T10:49:38;3.70;99.90
4759;DHT22;2393;50.560;12.636;2022-12-07T10:52:20;3.60;99.90
4759;DHT22;2393;50.560;12.636;2022-12-07T10:55:01;3.60;99.90
4759;DHT22;2393;50.560;12.636;2022-12-07T10:57:41;3.60;99.90
4759;DHT22;2393;50.560;12.636;2022-12-07T11:00:18;3.50;99.90
4759;DHT22;2393;50.560;12.636;2022-12-07T11:05:45;3.40;99.90
4759;DHT22;2393;50.560;12.636;2022-12-07T11:08:21;3.40;99.90
4759;DHT22;2393;50.560;12.636;2022-12-07T11:10:55;3.40;99.90
4759;DHT22;2393;50.560;12.636;2022-12-07T11:13:28;3.50;99.90
4759;DHT22;2393;50.560;12.636;2022-12-07T11:16:36;3.50;99.90
4759;DHT22;2393;50.560;12.636;2022-12-07T11:19:20;3.50;99.90
4759;DHT22;2393;50.560;12.636;2022-12-07T11:21:57;3.40;99.90
4759;DHT22;2393;50.560;12.636;2022-12-07T11:24:30;3.40;99.90
4759;DHT22;2393;50.560;12.636;2022-12-07T11:27:13;3.40;99.90
4759;DHT22;2393;50.560;12.636;2022-12-07T11:29:52;3.50;99.90
4759;DHT22;2393;50.560;12.636;2022-12-07T11:32:37;3.60;99.90
4759;DHT22;2393;50.560;12.636;2022-12-07T11:35:14;3.60;99.90
4759;DHT22;2393;50.560;12.636;2022-12-07T11:37:47;3.50;99.90
4759;DHT22;2393;50.560;12.636;2022-12-07T11:40:20;3.40;99.90
4759;DHT22;2393;50.560;12.636;2022-12-07T11:42:53;3.30;99.90
4759;DHT22;2393;50.560;12.636;2022-12-07T11:45:26;3.30;99.90
4759;DHT22;2393;50.560;12.636;2022-12-07T11:47:59;3.30;99.90
4759;DHT22;2393;50.560;12.636;2022-12-07T11:50:33;3.20;99.90
4759;DHT22;2393;50.560;12.636;2022-12-07T11:53:05;3.10;99.90
4759;DHT22;2393;50.560;12.636;2022-12-07T11:55:45;3.10;99.90
4759;DHT22;2393;50.560;12.636;2022-12-07T11:58:40;3.20;99.90
4759;DHT22;2393;50.560;12.636;2022-12-07T12:01:17;3.20;99.90
4759;DHT22;2393;50.560;12.636;2022-12-07T12:03:52;3.20;99.90
4759;DHT22;2393;50.560;12.636;2022-12-07T12:06:22;3.20;99.90
4759;DHT22;2393;50.560;12.636;2022-12-07T12:09:13;3.20;99.90
4759;DHT22;2393;50.560;12.636;2022-12-07T12:12:36;3.10;99.90
4759;DHT22;2393;50.560;12.636;2022-12-07T12:15:57;3.00;99.90
4759;DHT22;2393;50.560;12.636;2022-12-07T12:18:59;3.00;99.90
4759;DHT22;2393;50.560;12.636;2022-12-07T12:21:55;2.90;99.90
4759;DHT22;2393;50.560;12.636;2022-12-07T12:24:44;3.00;99.90
4759;DHT22;2393;50.560;12.636;2022-12-07T12:27:36;3.00;99.90
4759;DHT22;2393;50.560;12.636;2022-12-07T12:30:32;3.10;99.90
4759;DHT22;2393;50.560;12.636;2022-12-07T12:33:26;3.10;99.90
4759;DHT22;2393;50.560;12.636;2022-12-07T12:36:24;3.10;99.90
4759;DHT22;2393;50.560;12.636;2022-12-07T12:39:12;3.10;99.90
4759;DHT22;2393;50.560;12.636;2022-12-07T12:42:00;3.10;99.90
4759;DHT22;2393;50.560;12.636;2022-12-07T12:45:20;3.10;99.90
4759;DHT22;2393;50.560;12.636;2022-12-07T12:48:28;3.00;99.90
4759;DHT22;2393;50.560;12.636;2022-12-07T12:51:38;2.90;99.90
4759;DHT22;2393;50.560;12.636;2022-12-07T12:54:26;2.90;99.90
4759;DHT22;2393;50.560;12.636;2022-12-07T12:57:19;2.90;99.90
4759;DHT22;2393;50.560;12.636;2022-12-07T13:00:16;2.90;99.90
4759;DHT22;2393;50.560;12.636;2022-12-07T13:03:03;2.80;99.90
4759;DHT22;2393;50.560;12.636;2022-12-07T13:06:18;2.80;99.90
4759;DHT22;2393;50.560;12.636;2022-12-07T13:08:49;3.00;99.90
4759;DHT22;2393;50.560;12.636;2022-12-07T13:11:19;3.20;99.90
4759;DHT22;2393;50.560;12.636;2022-12-07T13:13:48;3.30;99.90
4759;DHT22;2393;50.560;12.636;2022-12-07T13:16:40;3.50;99.90
4759;DHT22;2393;50.560;12.636;2022-12-07T13:22:42;3.60;99.90
4759;DHT22;2393;50.560;12.636;2022-12-07T13:25:19;3.60;99.90
4759;DHT22;2393;50.560;12.636;2022-12-07T13:27:54;3.60;99.90
4759;DHT22;2393;50.560;12.636;2022-12-07T13:30:23;3.50;99.90
4759;DHT22;2393;50.560;12.636;2022-12-07T13:32:53;3.50;99.90
4759;DHT22;2393;50.560;12.636;2022-12-07T13:35:29;3.40;99.90
4759;DHT22;2393;50.560;12.636;2022-12-07T13:37:58;3.30;99.90
4759;DHT22;2393;50.560;12.636;2022-12-07T13:40:27;3.30;99.90
4759;DHT22;2393;50.560;12.636;2022-12-07T13:43:00;3.20;99.90
4759;DHT22;2393;50.560;12.636;2022-12-07T13:45:29;3.20;99.90
4759;DHT22;2393;50.560;12.636;2022-12-07T13:48:21;3.10;99.90
4759;DHT22;2393;50.560;12.636;2022-12-07T13:50:54;3.00;99.90
4759;DHT22;2393;50.560;12.636;2022-12-07T13:53:23;2.90;99.90
4759;DHT22;2393;50.560;12.636;2022-12-07T13:55:52;2.90;99.90
4759;DHT22;2393;50.560;12.636;2022-12-07T13:58:21;2.90;99.90
4759;DHT22;2393;50.560;12.636;2022-12-07T14:00:50;2.80;99.90
4759;DHT22;2393;50.560;12.636;2022-12-07T14:03:30;2.90;99.90
4759;DHT22;2393;50.560;12.636;2022-12-07T14:06:13;2.80;99.90
4759;DHT22;2393;50.560;12.636;2022-12-07T14:08:42;2.90;99.90
4759;DHT22;2393;50.560;12.636;2022-12-07T14:11:16;2.90;99.90
4759;DHT22;2393;50.560;12.636;2022-12-07T14:13:52;2.90;99.90
4759;DHT22;2393;50.560;12.636;2022-12-07T14:16:25;2.90;99.90
4759;DHT22;2393;50.560;12.636;2022-12-07T14:18:55;2.90;99.90
4759;DHT22;2393;50.560;12.636;2022-12-07T14:21:26;2.90;99.90
4759;DHT22;2393;50.560;12.636;2022-12-07T14:24:19;2.80;99.90
4759;DHT22;2393;50.560;12.636;2022-12-07T14:26:49;2.80;99.90
4759;DHT22;2393;50.560;12.636;2022-12-07T14:29:35;2.80;99.90
4759;DHT22;2393;50.560;12.636;2022-12-07T14:32:18;2.70;99.90
4759;DHT22;2393;50.560;12.636;2022-12-07T14:34:58;2.70;99.90
4759;DHT22;2393;50.560;12.636;2022-12-07T14:37:28;2.70;99.90
4759;DHT22;2393;50.560;12.636;2022-12-07T14:39:56;2.60;99.90
4759;DHT22;2393;50.560;12.636;2022-12-07T14:42:28;2.60;99.90
4759;DHT22;2393;50.560;12.636;2022-12-07T14:44:57;2.60;99.90
4759;DHT22;2393;50.560;12.636;2022-12-07T14:47:27;2.50;99.90
4759;DHT22;2393;50.560;12.636;2022-12-07T14:50:17;2.50;99.90
4759;DHT22;2393;50.560;12.636;2022-12-07T14:52:48;2.50;99.90
4759;DHT22;2393;50.560;12.636;2022-12-07T14:55:37;2.60;99.90
4759;DHT22;2393;50.560;12.636;2022-12-07T14:58:12;2.50;99.90
4759;DHT22;2393;50.560;12.636;2022-12-07T15:00:41;2.50;99.90
4759;DHT22;2393;50.560;12.636;2022-12-07T15:03:09;2.50;99.90
4759;DHT22;2393;50.560;12.636;2022-12-07T15:05:40;2.50;99.90
4759;DHT22;2393;50.560;12.636;2022-12-07T15:08:09;2.50;99.90
4759;DHT22;2393;50.560;12.636;2022-12-07T15:10:37;2.40;99.90
4759;DHT22;2393;50.560;12.636;2022-12-07T15:13:07;2.50;99.90
4759;DHT22;2393;50.560;12.636;2022-12-07T15:15:54;2.50;99.90
4759;DHT22;2393;50.560;12.636;2022-12-07T15:18:23;2.50;99.90
4759;DHT22;2393;50.560;12.636;2022-12-07T15:20:51;2.40;99.90
4759;DHT22;2393;50.560;12.636;2022-12-07T15:23:20;2.50;99.90
4759;DHT22;2393;50.560;12.636;2022-12-07T15:25:48;2.50;99.90
4759;DHT22;2393;50.560;12.636;2022-12-07T15:28:18;2.50;99.90
4759;DHT22;2393;50.560;12.636;2022-12-07T15:30:46;2.50;99.90
4759;DHT22;2393;50.560;12.636;2022-12-07T15:33:14;2.50;99.90
4759;DHT22;2393;50.560;12.636;2022-12-07T15:35:43;2.40;99.90
4759;DHT22;2393;50.560;12.636;2022-12-07T15:38:12;2.50;99.90
4759;DHT22;2393;50.560;12.636;2022-12-07T15:40:40;2.50;99.90
4759;DHT22;2393;50.560;12.636;2022-12-07T15:43:09;2.50;99.90
4759;DHT22;2393;50.560;12.636;2022-12-07T15:45:58;2.50;99.90
4759;DHT22;2393;50.560;12.636;2022-12-07T15:48:26;2.50;99.90
4759;DHT22;2393;50.560;12.636;2022-12-07T15:51:02;2.50;99.90
4759;DHT22;2393;50.560;12.636;2022-12-07T15:53:30;2.50;99.90
4759;DHT22;2393;50.560;12.636;2022-12-07T15:55:58;2.50;99.90
4759;DHT22;2393;50.560;12.636;2022-12-07T15:58:26;2.40;99.90
4759;DHT22;2393;50.560;12.636;2022-12-07T16:00:54;2.40;99.90
4759;DHT22;2393;50.560;12.636;2022-12-07T16:03:23;2.50;99.90
4759;DHT22;2393;50.560;12.636;2022-12-07T16:05:52;2.50;99.90
4759;DHT22;2393;50.560;12.636;2022-12-07T16:08:20;2.50;99.90
4759;DHT22;2393;50.560;12.636;2022-12-07T16:10:49;2.50;99.90
4759;DHT22;2393;50.560;12.636;2022-12-07T16:13:17;2.50;99.90
4759;DHT22;2393;50.560;12.636;2022-12-07T16:15:46;2.50;99.90
4759;DHT22;2393;50.560;12.636;2022-12-07T16:18:14;2.50;99.90
4759;DHT22;2393;50.560;12.636;2022-12-07T16:20:44;2.50;99.90
4759;DHT22;2393;50.560;12.636;2022-12-07T16:23:14;2.50;99.90
4759;DHT22;2393;50.560;12.636;2022-12-07T16:25:43;2.50;99.90
4759;DHT22;2393;50.560;12.636;2022-12-07T16:28:11;2.40;99.90
4759;DHT22;2393;50.560;12.636;2022-12-07T16:30:39;2.50;99.90
4759;DHT22;2393;50.560;12.636;2022-12-07T16:33:07;2.40;99.90
4759;DHT22;2393;50.560;12.636;2022-12-07T16:35:38;2.40;99.90
4759;DHT22;2393;50.560;12.636;2022-12-07T16:38:09;2.40;99.90
4759;DHT22;2393;50.560;12.636;2022-12-07T16:40:37;2.40;99.90
4759;DHT22;2393;50.560;12.636;2022-12-07T16:43:05;2.40;99.90
4759;DHT22;2393;50.560;12.636;2022-12-07T16:45:33;2.40;99.90
4759;DHT22;2393;50.560;12.636;2022-12-07T16:48:04;2.40;99.90
4759;DHT22;2393;50.560;12.636;2022-12-07T16:50:32;2.40;99.90